Aktualne dane pomiarowe

Uwaga, wersja testowa! Automatyczne pobieranie danych za pomocą narzędzi lub skryptów to umożliwiających jest zabronione.

Dane meteo z obszaru Polski uzyskane na podstawie depesz SYNOP pobieranych co godzinę z NWS. Najedź myszką na symbol przedstawiony w tabeli, aby uzyskać informacje co do jego znaczenia. Prosimy pamiętać, że to testowa wersja strony, która jeszcze nie jest ukończona. Stworzono również jest krótki FAQ dotyczący korzystania z tej podstrony Anomalie temperatury w chwili obecnej odniesione są do okresu referencyjnego 1951-2016. Okres ten będzie później zmieniony na 1981-2010. Kliknij ikonę aby pobrać plik CSV. Kliknij ikonę aby wygenerować mapę synoptyczną dla danego terminu.

Wybierz Datę:    

        

Włodawa (12497)

Dane terminowe dla wybranej stacji. Kliknij datę, aby otrzymać dane z tego terminu dla wszystkich stacji.

TemperaturaZachmurzenieWiatrCiśnienieOpadyPogoda
 Data t td wb tx tn tg rh  Nt Nl Cl Cm Ch ws wd g1 g2 wx mslp ppp ch 24h 12h t ww ww w1 w2  
2019-05-25 23:00:00 13.4 10.0 11.2--- 8020.0wx-wx4wx--41012.6 991.3 1.2---------
2019-05-25 22:00:00 14.6 10.2 11.8--- 7520.0wxwxwxwx3wx--31012.3 991.1 1.2---------
2019-05-25 21:00:00 15.7 10.0 12.1--- 6920.0wx-wx3wx--31011.9 990.8 1.4---------
2019-05-25 20:00:00 15.1 9.9 11.8--- 7120.0wxwxwxwx3wx--31011.2 990.1 0.7---------
2019-05-25 19:00:00 15.1 11.5 12.7--- 7920.0wxwxwxwx3wx---1011.0 989.9 0.4---------
2019-05-25 18:00:00 18.1 10.2 13.3 22.3 14.7- 6020.0wxwxwxwx3wx--31010.3 989.4 0.0- 0.012------
2019-05-25 17:00:00 20.8 9.7 14.3--- 4920.0wxwxwxwx3wx--31010.1 989.4 -0.1---------
2019-05-25 16:00:00 21.4 8.0 13.8--- 4220.0wxwxwxwx4wx--41010.2 989.5 -0.1---------
2019-05-25 15:00:00 21.9 8.0 14.0--- 4120.0wxwxwxwx5wx--51010.0 989.4 -0.2---------
2019-05-25 14:00:00 21.9 6.9 13.5--- 3820.0wxwxwxwx5wx---1010.1 989.5 -0.3---------
2019-05-25 13:00:00 21.8 7.2 13.6--- 3920.0wxwxwxwx5wx--51010.2 989.6 -0.2---------
2019-05-25 12:00:00 21.9 11.3 15.5--- 5120.0wxwxwxwx5wx-851010.2 989.6 -0.1- 0.06------
2019-05-25 11:00:00 20.3 11.5 14.9--- 5720.0wxwxwxwx5wx--51010.5 989.8 0.0---------
2019-05-25 10:00:00 19.8 10.8 14.3--- 5620.0wxwxwx6wx-861010.6 989.8 0.0---------
2019-05-25 09:00:00 19.8 13.9 15.9--- 6920.0wxwxwxwx3wx---1010.5 989.7 0.2---------
2019-05-25 08:00:00 19.2 14.0 15.8--- 7220.0wxwxwxwxwx3wx--31010.6 989.8 0.4---------
2019-05-25 07:00:00 16.5 14.1 14.8--- 8618.0wxwxwxwxwx1wx--11010.8 989.8 0.5---------
2019-05-25 06:00:00 14.7 13.4 13.8 15.1 13.0 13 928.0wxwxwxwx1wx--11010.6 989.5 0.4- 0.012wx-- 5.9
2019-05-25 05:00:00 13.8 12.9 13.1--- 948.0wxwxwxwx2wx---1010.6 989.4 0.5---wx---
2019-05-25 04:00:00 13.3 12.4 12.6--- 948.0wxwxwxwx2wx--21010.5 989.3 0.4---wx---
2019-05-25 03:00:00 13.1 12.3 12.5--- 956.0wxwxwxwx1wx--11010.4 989.1 -0.3---wx---
2019-05-25 02:00:00 13.3 12.4 12.6--- 946.0wxwxwxwx2wx--21010.1 988.9 -0.6---wx---
2019-05-25 01:00:00 13.7 12.8 13.0--- 946.0wxwxwx2wx--21010.1 988.9 -0.9---wx---
2019-05-25 00:00:00 13.6 12.8 13.0--- 956.0wxwxwx1wx--11010.6 989.4 -0.4- 0.06wx---
2019-05-24 23:00:00 13.3 12.5 12.7--- 956.0wxwxwx2wx---1010.7 989.5 -0.3---wx---
2019-05-24 22:00:00 13.6 12.8 13.0--- 956.0wxwxwx2wx--21011.0 989.8 -0.6---wx---
2019-05-24 21:00:00 13.7 12.6 12.9--- 938.0wxwxwx1wx--11011.0 989.8 0.0---wx---
2019-05-24 20:00:00 13.8 12.5 12.9--- 9210.0wxwxwxwxwx3wx--31011.0 989.8 -0.2---------
2019-05-24 19:00:00 14.1 12.8 13.2--- 9210.0wxwxwxwx1wx--11011.6 990.4 0.2---------
2019-05-24 18:00:00 15.1 12.6 13.4 18.1 14.3- 8515.0wxwxwxwxwx2wx--21010.9 989.8 -0.5- 0.012------
2019-05-24 17:00:00 15.3 12.4 13.3--- 8315.0wxwxwxwx4wx--41011.1 990.0 -0.3---------
2019-05-24 16:00:00 15.9 12.1 13.4--- 7818.0wxwxwxwx4wx--41011.3 990.2 -0.3---------
2019-05-24 15:00:00 16.9 13.0 14.3--- 7820.0wxwxwx5wx--51011.3 990.3 -0.8---------
2019-05-24 14:00:00 17.3 13.2 14.6--- 7720.0wxwxwxwx4wx--41011.3 990.3 -0.6---------
2019-05-24 13:00:00 17.3 13.4 14.7--- 7820.0wxwxwxwx4wx---1011.5 990.5 -1.0---------
2019-05-24 12:00:00 16.9 13.2 14.4--- 7918.0wxwxwxwxwx4wx--41012.1 991.1 -0.5- 0.06------
2019-05-24 11:00:00 16.7 13.4 14.5--- 8118.0wxwxwxwxwx4wx--41011.9 990.9 -0.7---------
2019-05-24 10:00:00 16.8 13.9 14.8--- 8318.0wxwxwxwx3wx--31012.5 991.5 0.1---------
2019-05-24 09:00:00 15.0 12.7 13.4--- 8615.0wxwxwx2wx--21012.8 991.6 0.5---------
2019-05-24 08:00:00 14.7 12.7 13.3--- 8810.0wxwxwx3wx--31012.8 991.6 0.7---------
2019-05-24 07:00:00 14.3 12.7 13.2--- 909.0wxwxwx4wx--41012.6 991.4 0.8---wx---
2019-05-24 06:00:00 14.6 13.1 13.5 18.3 13.5 13 919.0wxwxwx4wx--41012.3 991.1 1.0--12wx-w1- 9.3
2019-05-24 05:00:00 14.3 13.2 13.5--- 938.0wxwxwx3wx--31012.1 990.9 1.4---wx---
2019-05-24 04:00:00 14.4 13.4 13.7--- 948.0wxwxwx3wx---1011.8 990.6 1.0---wx---
2019-05-24 03:00:00 14.0 13.5 13.6--- 975.0wxwxwx4wx---1011.3 990.1 -0.1---wx-w1--
2019-05-24 02:00:00 13.7 13.2 13.3--- 974.0wxwxwx4wx--41010.7 989.5 -1.0---wx---
2019-05-24 01:00:00 13.5 13.0 13.1--- 976.0wxwxwx3wx--31010.8 989.6 -0.4---wx-w1w2--
2019-05-24 00:00:00 13.7 13.1 13.2--- 9610.0wxwxwx2wx--21011.4 990.2 0.2--6wx---
1.1 ms

 

Print Friendly, PDF & Email